createdAt,value
2023-08-29T08:19:23.322Z,46.08
2023-08-29T08:21:53.622Z,45.51
2023-08-29T08:24:25.967Z,44.72
2023-08-29T08:26:56.337Z,44.70
2023-08-29T08:29:25.745Z,44.35
2023-08-29T08:31:55.287Z,43.88
2023-08-29T08:34:24.440Z,43.51
2023-08-29T08:36:54.538Z,43.37
2023-08-29T08:39:24.147Z,43.11
2023-08-29T08:41:54.624Z,42.76
2023-08-29T08:44:25.549Z,42.59
2023-08-29T08:46:55.645Z,42.93
2023-08-29T08:49:26.232Z,42.70
2023-08-29T08:51:57.575Z,43.17
2023-08-29T08:54:27.992Z,43.27
2023-08-29T08:56:59.874Z,43.27
2023-08-29T08:59:29.415Z,42.80
2023-08-29T09:01:58.935Z,42.91
2023-08-29T09:04:28.763Z,42.91
2023-08-29T09:06:57.841Z,43.21
2023-08-29T09:09:27.596Z,43.28
2023-08-29T09:11:58.840Z,43.97
2023-08-29T09:14:28.885Z,44.01
2023-08-29T09:17:00.609Z,44.66
2023-08-29T09:19:37.016Z,45.23
2023-08-29T09:22:07.711Z,45.82
2023-08-29T09:24:38.170Z,44.80
2023-08-29T09:27:13.412Z,44.78
2023-08-29T09:29:43.383Z,45.09
2023-08-29T09:32:17.912Z,45.26
2023-08-29T09:34:48.786Z,45.87
2023-08-29T09:37:18.411Z,46.21
2023-08-29T09:39:49.656Z,46.85
2023-08-29T09:42:21.208Z,47.96
2023-08-29T09:44:54.403Z,48.53
2023-08-29T09:47:28.913Z,49.01
2023-08-29T09:49:58.961Z,49.81
2023-08-29T09:52:31.221Z,50.01
2023-08-29T09:55:04.833Z,50.78
2023-08-29T09:57:37.474Z,51.13
2023-08-29T10:00:10.800Z,51.87
2023-08-29T10:02:42.187Z,52.16
2023-08-29T10:05:14.357Z,52.32
2023-08-29T10:07:47.186Z,52.78
2023-08-29T10:10:17.522Z,52.90
2023-08-29T10:12:49.766Z,52.32
2023-08-29T10:15:20.030Z,52.36
2023-08-29T10:17:50.653Z,53.47
2023-08-29T10:20:22.890Z,53.09
2023-08-29T10:22:53.688Z,52.93
2023-08-29T10:25:23.729Z,53.12
2023-08-29T10:27:53.302Z,53.27
2023-08-29T10:30:28.292Z,53.04
2023-08-29T10:32:58.641Z,53.42
2023-08-29T10:35:33.317Z,53.32
2023-08-29T10:38:04.021Z,52.95
2023-08-29T10:40:37.597Z,52.88
2023-08-29T10:43:19.848Z,52.97
2023-08-29T10:46:01.745Z,52.09
2023-08-29T10:48:31.882Z,51.83
2023-08-29T10:51:10.827Z,51.39
2023-08-29T10:53:49.336Z,51.11
2023-08-29T10:56:20.046Z,50.60
2023-08-29T10:58:50.040Z,49.47
2023-08-29T11:01:29.650Z,48.98
2023-08-29T11:04:01.789Z,48.44
2023-08-29T11:06:54.160Z,47.69
2023-08-29T11:09:24.904Z,45.09
2023-08-29T11:12:08.523Z,43.42
2023-08-29T11:14:54.020Z,41.35
2023-08-29T11:17:27.686Z,39.26
2023-08-29T11:19:59.513Z,37.92
2023-08-29T11:22:33.256Z,36.80
2023-08-29T11:25:03.445Z,36.30
2023-08-29T11:27:41.017Z,35.28
2023-08-29T11:30:22.533Z,34.31
2023-08-29T11:33:00.772Z,32.81
2023-08-29T11:35:30.579Z,31.55
2023-08-29T11:38:00.676Z,31.45
2023-08-29T11:40:42.089Z,31.59
2023-08-29T11:43:45.262Z,32.75
2023-08-29T11:46:10.871Z,34.74
2023-08-29T11:48:41.038Z,35.81
2023-08-29T11:51:12.394Z,36.73
2023-08-29T11:53:42.130Z,38.33
2023-08-29T11:56:13.584Z,39.47
2023-08-29T11:58:45.809Z,41.00
2023-08-29T12:01:18.239Z,44.62
2023-08-29T12:03:49.285Z,48.14
2023-08-29T12:06:20.658Z,51.98
2023-08-29T12:08:52.639Z,55.86
2023-08-29T12:11:23.625Z,59.71
2023-08-29T12:14:07.328Z,62.41
2023-08-29T12:16:39.575Z,64.21
2023-08-29T12:19:16.988Z,66.52
2023-08-29T12:21:59.259Z,68.37
2023-08-29T12:24:30.227Z,69.56
2023-08-29T12:27:03.103Z,70.50
2023-08-29T12:29:35.059Z,71.56
2023-08-29T12:32:05.022Z,71.51
2023-08-29T12:34:34.742Z,71.88
2023-08-29T12:37:05.202Z,72.43
2023-08-29T12:39:36.858Z,73.12
2023-08-29T12:42:18.923Z,73.09
2023-08-29T12:46:00.078Z,73.18
2023-08-29T12:48:30.990Z,71.99
2023-08-29T12:51:00.786Z,71.34
2023-08-29T12:53:32.456Z,70.24
2023-08-29T12:56:02.031Z,70.55
2023-08-29T12:58:31.307Z,69.03
2023-08-29T13:01:00.697Z,68.55
2023-08-29T13:03:30.030Z,67.71
2023-08-29T13:05:59.694Z,65.41
2023-08-29T13:08:29.015Z,62.46
2023-08-29T13:10:58.572Z,58.87
2023-08-29T13:13:28.845Z,56.76
2023-08-29T13:15:58.506Z,56.19
2023-08-29T13:18:28.874Z,56.28
2023-08-29T13:20:59.530Z,54.41
2023-08-29T13:23:29.368Z,53.63
2023-08-29T13:25:59.014Z,51.90
2023-08-29T13:28:28.992Z,52.17
2023-08-29T13:31:02.884Z,49.63
2023-08-29T13:33:37.495Z,47.90
2023-08-29T13:36:08.420Z,47.17
2023-08-29T13:38:38.192Z,46.15
2023-08-29T13:41:09.464Z,46.46
2023-08-29T13:43:39.971Z,47.11
2023-08-29T13:46:10.921Z,48.14
2023-08-29T13:48:41.375Z,47.85
2023-08-29T13:51:11.214Z,48.57
2023-08-29T13:53:40.438Z,51.27
2023-08-29T13:56:10.379Z,49.90
2023-08-29T13:58:39.895Z,49.83
2023-08-29T14:01:11.416Z,49.50
2023-08-29T14:03:42.453Z,48.02
2023-08-29T14:06:14.373Z,47.83
2023-08-29T14:08:45.350Z,47.59
2023-08-29T14:11:15.195Z,46.59
2023-08-29T14:13:45.276Z,46.00
2023-08-29T14:16:15.598Z,45.61
2023-08-29T14:18:47.452Z,44.44
2023-08-29T14:21:19.509Z,43.90
2023-08-29T14:23:48.714Z,41.74
2023-08-29T14:26:18.581Z,42.01
2023-08-29T14:28:48.088Z,42.08
2023-08-29T14:31:26.511Z,42.01
2023-08-29T14:33:56.520Z,42.05
2023-08-29T14:36:26.524Z,42.32
2023-08-29T14:38:57.953Z,41.46
2023-08-29T14:41:28.684Z,41.68
2023-08-29T14:43:58.159Z,41.54
2023-08-29T14:46:27.461Z,42.10
2023-08-29T14:48:57.671Z,42.35
2023-08-29T14:51:27.856Z,43.26
2023-08-29T14:53:58.565Z,43.67
2023-08-29T14:56:28.453Z,44.45
2023-08-29T14:58:58.747Z,45.04
2023-08-29T15:01:28.609Z,46.10
2023-08-29T15:03:57.851Z,46.94
2023-08-29T15:06:27.873Z,47.32
2023-08-29T15:08:57.787Z,47.75
2023-08-29T15:11:27.136Z,47.96
2023-08-29T15:13:57.337Z,47.91
2023-08-29T15:16:26.524Z,48.08
2023-08-29T15:18:56.488Z,48.10
2023-08-29T15:21:26.474Z,48.24
2023-08-29T15:23:56.014Z,47.79
2023-08-29T15:26:25.454Z,47.92
2023-08-29T15:28:55.210Z,47.46
2023-08-29T15:31:24.575Z,47.28
2023-08-29T15:33:53.973Z,47.15
2023-08-29T15:36:26.803Z,47.38
2023-08-29T15:38:56.093Z,47.41
2023-08-29T15:41:25.680Z,47.25
2023-08-29T15:43:54.999Z,47.52
2023-08-29T15:46:24.497Z,47.61
2023-08-29T15:48:53.782Z,47.29
2023-08-29T15:51:22.690Z,47.97
2023-08-29T15:53:53.618Z,49.41
2023-08-29T15:56:23.218Z,49.88
2023-08-29T15:58:52.953Z,50.03
2023-08-29T16:01:23.172Z,47.87
2023-08-29T16:03:53.713Z,47.44
2023-08-29T16:06:23.738Z,47.04
2023-08-29T16:08:53.767Z,48.07
2023-08-29T16:11:24.522Z,48.38
2023-08-29T16:13:55.820Z,48.17
2023-08-29T16:16:27.025Z,48.28
2023-08-29T16:18:57.433Z,49.38
2023-08-29T16:21:27.001Z,50.05
2023-08-29T16:23:57.447Z,50.55
2023-08-29T16:26:27.159Z,50.98
2023-08-29T16:28:57.672Z,51.31
2023-08-29T16:31:27.810Z,52.14
2023-08-29T16:33:57.709Z,52.97
2023-08-29T16:36:27.106Z,53.38
2023-08-29T16:38:56.656Z,53.14
2023-08-29T16:41:25.998Z,53.45
2023-08-29T16:43:58.424Z,53.85
2023-08-29T16:46:28.727Z,54.22
2023-08-29T16:48:58.065Z,54.36
2023-08-29T16:51:27.352Z,54.23
2023-08-29T16:53:56.395Z,54.28
2023-08-29T16:56:25.955Z,54.27
2023-08-29T16:58:55.347Z,54.01
2023-08-29T17:01:25.068Z,53.45
2023-08-29T17:03:56.138Z,53.57
2023-08-29T17:06:26.194Z,53.69
2023-08-29T17:08:57.182Z,53.81
2023-08-29T17:11:26.520Z,54.12
2023-08-29T17:13:56.114Z,54.38
2023-08-29T17:16:26.231Z,54.81
2023-08-29T17:18:57.740Z,54.79
2023-08-29T17:21:27.185Z,55.21
2023-08-29T17:23:56.937Z,55.61
2023-08-29T17:26:26.822Z,55.31
2023-08-29T17:28:57.402Z,55.36
2023-08-29T17:31:28.649Z,56.98
2023-08-29T17:33:58.161Z,57.48
2023-08-29T17:36:27.441Z,56.86
2023-08-29T17:38:56.671Z,58.34
2023-08-29T17:41:27.682Z,59.07
2023-08-29T17:43:57.668Z,59.65
2023-08-29T17:46:27.362Z,60.40
2023-08-29T17:48:57.615Z,61.07
2023-08-29T17:51:27.411Z,60.74
2023-08-29T17:53:57.153Z,60.83
2023-08-29T17:56:26.943Z,61.25
2023-08-29T17:58:56.991Z,61.66
2023-08-29T18:01:26.579Z,61.59
2023-08-29T18:03:57.931Z,61.30
2023-08-29T18:06:29.239Z,60.86
2023-08-29T18:08:59.821Z,61.37
2023-08-29T18:11:31.970Z,61.50
2023-08-29T18:14:03.216Z,61.44
2023-08-29T18:16:33.197Z,61.14
2023-08-29T18:19:04.174Z,61.03
2023-08-29T18:21:35.434Z,61.39
2023-08-29T18:24:08.214Z,61.71
2023-08-29T18:26:39.022Z,62.03
2023-08-29T18:29:09.038Z,62.47
2023-08-29T18:31:39.867Z,63.09
2023-08-29T18:34:10.436Z,63.12
2023-08-29T18:36:40.054Z,63.59
2023-08-29T18:39:10.454Z,63.87
2023-08-29T18:41:40.486Z,64.21
2023-08-29T18:44:10.476Z,64.06
2023-08-29T18:46:39.607Z,64.28
2023-08-29T18:49:09.877Z,64.56
2023-08-29T18:51:39.700Z,64.84
2023-08-29T18:54:09.720Z,65.51
2023-08-29T18:56:39.514Z,65.65
2023-08-29T18:59:09.253Z,65.63
2023-08-29T19:01:39.113Z,65.63
2023-08-29T19:04:09.054Z,65.78
2023-08-29T19:06:39.227Z,65.41
2023-08-29T19:09:09.552Z,65.53
2023-08-29T19:11:39.516Z,66.01
2023-08-29T19:14:09.448Z,65.83
2023-08-29T19:16:39.689Z,65.66
2023-08-29T19:19:13.867Z,65.54
2023-08-29T19:21:43.853Z,65.41
2023-08-29T19:24:14.383Z,65.52
2023-08-29T19:26:44.967Z,65.55
2023-08-29T19:29:17.894Z,65.60
2023-08-29T19:31:51.932Z,65.38
2023-08-29T19:34:23.696Z,65.48
2023-08-29T19:36:55.699Z,65.73
2023-08-29T19:39:26.688Z,65.82
2023-08-29T19:41:58.320Z,65.75
2023-08-29T19:44:29.999Z,65.88
2023-08-29T19:47:04.714Z,65.96
2023-08-29T19:49:40.895Z,65.66
2023-08-29T19:52:11.875Z,65.83
2023-08-29T19:54:42.324Z,66.14
2023-08-29T19:57:12.187Z,65.94
2023-08-29T19:59:42.410Z,65.79
2023-08-29T20:02:14.595Z,65.79
2023-08-29T20:04:46.308Z,65.83
2023-08-29T20:07:16.654Z,65.66
2023-08-29T20:09:46.718Z,65.50
2023-08-29T20:12:16.960Z,65.83
2023-08-29T20:14:46.780Z,65.74
2023-08-29T20:17:16.702Z,65.78
2023-08-29T20:19:46.368Z,65.74
2023-08-29T20:22:15.650Z,65.88
2023-08-29T20:24:46.655Z,66.04
2023-08-29T20:27:18.136Z,65.88
2023-08-29T20:29:52.753Z,65.96
2023-08-29T20:32:23.844Z,65.61
2023-08-29T20:34:55.097Z,65.57
2023-08-29T20:37:24.913Z,65.77
2023-08-29T20:39:54.580Z,65.80
2023-08-29T20:42:24.427Z,65.84
2023-08-29T20:44:56.273Z,65.69
2023-08-29T20:47:26.879Z,65.75
2023-08-29T20:49:56.578Z,65.92
2023-08-29T20:52:27.615Z,65.72
2023-08-29T20:54:57.396Z,65.65
2023-08-29T20:57:26.689Z,65.71
2023-08-29T20:59:56.363Z,65.74
2023-08-29T21:02:26.814Z,66.02
2023-08-29T21:04:56.114Z,66.25
2023-08-29T21:07:25.739Z,66.62
2023-08-29T21:09:55.426Z,67.04
2023-08-29T21:12:26.315Z,67.14
2023-08-29T21:14:55.765Z,67.03
2023-08-29T21:17:28.000Z,66.94
2023-08-29T21:19:57.827Z,67.07
2023-08-29T21:22:27.407Z,67.12
2023-08-29T21:24:56.677Z,66.84
2023-08-29T21:27:26.728Z,66.97
2023-08-29T21:29:56.117Z,66.90
2023-08-29T21:32:25.443Z,67.19
2023-08-29T21:34:54.575Z,67.38
2023-08-29T21:37:23.932Z,67.57
2023-08-29T21:39:53.427Z,67.80
2023-08-29T21:42:22.906Z,67.84
2023-08-29T21:44:53.137Z,68.03
2023-08-29T21:47:22.447Z,68.17
2023-08-29T21:49:51.662Z,68.05
2023-08-29T21:52:21.040Z,68.13
2023-08-29T21:54:50.554Z,68.00
2023-08-29T21:57:19.836Z,67.85
2023-08-29T21:59:48.903Z,67.61
2023-08-29T22:02:18.139Z,67.64
2023-08-29T22:04:50.182Z,67.66
2023-08-29T22:07:19.597Z,67.74
2023-08-29T22:09:48.752Z,67.80
2023-08-29T22:12:18.526Z,67.81
2023-08-29T22:14:47.979Z,67.94
2023-08-29T22:17:16.948Z,67.79
2023-08-29T22:19:45.939Z,67.51
2023-08-29T22:22:14.988Z,67.81
2023-08-29T22:24:44.833Z,68.01
2023-08-29T22:27:13.964Z,68.03
2023-08-29T22:29:43.187Z,67.65
2023-08-29T22:32:12.779Z,68.15
2023-08-29T22:34:43.234Z,68.25
2023-08-29T22:37:14.313Z,68.54
2023-08-29T22:39:44.317Z,68.81
2023-08-29T22:42:14.401Z,69.16
2023-08-29T22:44:47.202Z,69.08
2023-08-29T22:47:17.079Z,69.35
2023-08-29T22:49:47.327Z,69.66
2023-08-29T22:52:19.058Z,69.78
2023-08-29T22:54:48.291Z,70.02
2023-08-29T22:57:18.811Z,70.19
2023-08-29T22:59:49.253Z,70.34
2023-08-29T23:02:18.884Z,70.63
2023-08-29T23:04:48.511Z,70.45
2023-08-29T23:07:17.807Z,70.36
2023-08-29T23:09:48.460Z,70.14
2023-08-29T23:12:18.351Z,70.17
2023-08-29T23:14:48.066Z,70.10
2023-08-29T23:17:18.593Z,70.40
2023-08-29T23:19:47.997Z,69.95
2023-08-29T23:22:17.275Z,69.57
2023-08-29T23:24:47.327Z,69.36
2023-08-29T23:27:16.899Z,69.29
2023-08-29T23:29:46.541Z,69.01
2023-08-29T23:32:16.590Z,68.86
2023-08-29T23:34:47.346Z,68.68
2023-08-29T23:37:16.967Z,68.48
2023-08-29T23:39:46.509Z,68.29
2023-08-29T23:42:17.140Z,68.32
2023-08-29T23:44:46.272Z,68.25
2023-08-29T23:47:15.755Z,68.27
2023-08-29T23:49:46.498Z,68.12
2023-08-29T23:52:15.984Z,68.12
2023-08-29T23:54:45.413Z,68.13
2023-08-29T23:57:14.611Z,68.23
2023-08-29T23:59:43.920Z,68.37
